createdAt,value
2017-11-24T00:00:42.813Z,4.10
2017-11-24T00:03:10.502Z,6.30
2017-11-24T00:05:38.181Z,5.47
2017-11-24T00:08:05.873Z,5.83
2017-11-24T00:10:33.474Z,4.80
2017-11-24T00:13:01.152Z,7.23
2017-11-24T00:15:28.805Z,5.23
2017-11-24T00:17:56.457Z,6.37
2017-11-24T00:20:24.075Z,9.27
2017-11-24T00:22:51.785Z,6.20
2017-11-24T00:25:19.429Z,5.43
2017-11-24T00:27:47.104Z,5.60
2017-11-24T00:30:14.813Z,4.90
2017-11-24T00:32:42.400Z,6.70
2017-11-24T00:35:10.093Z,6.60
2017-11-24T00:37:37.736Z,3.20
2017-11-24T00:40:05.360Z,5.13
2017-11-24T00:42:33.047Z,7.53
2017-11-24T00:45:00.744Z,5.30
2017-11-24T00:47:28.341Z,3.77
2017-11-24T00:49:56.053Z,6.10
2017-11-24T00:52:23.707Z,6.73
2017-11-24T00:54:51.438Z,7.80
2017-11-24T00:57:19.029Z,4.40
2017-11-24T00:59:46.742Z,5.60
2017-11-24T01:02:14.412Z,5.73
2017-11-24T01:04:42.073Z,3.30
2017-11-24T01:07:09.704Z,5.33
2017-11-24T01:09:37.427Z,4.57
2017-11-24T01:12:05.113Z,5.93
2017-11-24T01:14:32.788Z,6.83
2017-11-24T01:17:00.506Z,4.60
2017-11-24T01:19:28.084Z,6.80
2017-11-24T01:21:55.781Z,4.63
2017-11-24T01:24:23.518Z,4.13
2017-11-24T01:26:51.270Z,6.13
2017-11-24T01:29:18.959Z,3.20
2017-11-24T01:31:46.659Z,4.37
2017-11-24T01:34:14.275Z,5.30
2017-11-24T01:36:41.970Z,8.30
2017-11-24T01:39:09.590Z,7.70
2017-11-24T01:41:37.287Z,8.57
2017-11-24T01:44:04.950Z,4.80
2017-11-24T01:46:32.656Z,5.83
2017-11-24T01:49:00.303Z,7.80
2017-11-24T01:51:28.042Z,6.90
2017-11-24T01:53:55.690Z,3.30
2017-11-24T01:56:23.453Z,10.23
2017-11-24T01:58:51.096Z,10.10
2017-11-24T02:01:18.791Z,5.63
2017-11-24T02:03:46.380Z,7.30
2017-11-24T02:06:14.004Z,5.60
2017-11-24T02:08:41.707Z,4.83
2017-11-24T02:11:09.408Z,5.40
2017-11-24T02:13:37.501Z,4.13
2017-11-24T02:16:05.212Z,6.60
2017-11-24T02:18:32.874Z,3.93
2017-11-24T02:21:00.493Z,5.70
2017-11-24T02:23:28.131Z,6.33
2017-11-24T02:25:55.803Z,5.47
2017-11-24T02:28:23.504Z,3.40
2017-11-24T02:30:51.114Z,6.47
2017-11-24T02:33:18.761Z,6.07
2017-11-24T02:35:46.423Z,10.60
2017-11-24T02:38:14.123Z,8.97
2017-11-24T02:40:41.709Z,5.93
2017-11-24T02:43:09.404Z,8.37
2017-11-24T02:45:37.063Z,8.40
2017-11-24T02:48:04.759Z,10.90
2017-11-24T02:50:32.442Z,5.90
2017-11-24T02:53:00.130Z,5.93
2017-11-24T02:55:27.717Z,6.13
2017-11-24T02:57:55.436Z,3.70
2017-11-24T03:00:23.125Z,9.27
2017-11-24T03:02:50.824Z,7.53
2017-11-24T03:05:18.456Z,8.03
2017-11-24T03:07:46.154Z,7.43
2017-11-24T03:10:13.836Z,9.63
2017-11-24T03:12:41.500Z,10.77
2017-11-24T03:15:10.007Z,8.57
2017-11-24T03:17:37.733Z,6.47
2017-11-24T03:20:05.394Z,6.67
2017-11-24T03:22:33.120Z,5.53
2017-11-24T03:25:00.769Z,10.17
2017-11-24T03:27:28.404Z,6.70
2017-11-24T03:29:56.109Z,4.80
2017-11-24T03:32:23.809Z,6.97
2017-11-24T03:34:51.489Z,7.83
2017-11-24T03:37:19.328Z,7.63
2017-11-24T03:39:46.956Z,7.93
2017-11-24T03:42:14.689Z,6.17
2017-11-24T03:44:42.391Z,5.53
2017-11-24T03:47:10.043Z,6.40
2017-11-24T03:49:37.737Z,5.80
2017-11-24T03:52:05.430Z,7.60
2017-11-24T03:54:33.060Z,7.00
2017-11-24T03:57:00.717Z,9.27
2017-11-24T03:59:28.428Z,6.10
2017-11-24T04:01:56.113Z,15.50
2017-11-24T04:04:23.724Z,6.60
2017-11-24T04:06:51.397Z,7.70
2017-11-24T04:09:19.098Z,13.97
2017-11-24T04:11:46.816Z,9.27
2017-11-24T04:14:14.476Z,7.70
2017-11-24T04:16:42.153Z,6.20
2017-11-24T04:19:09.877Z,8.33
2017-11-24T04:21:37.588Z,6.83
2017-11-24T04:24:05.356Z,6.63
2017-11-24T04:26:33.035Z,7.10
2017-11-24T04:29:00.710Z,12.17
2017-11-24T04:31:28.394Z,6.30
2017-11-24T04:33:56.041Z,10.20
2017-11-24T04:36:23.749Z,9.67
2017-11-24T04:38:51.398Z,9.27
2017-11-24T04:41:19.113Z,8.47
2017-11-24T04:43:46.876Z,17.33
2017-11-24T04:46:14.608Z,4.10
2017-11-24T04:48:42.300Z,4.73
2017-11-24T04:51:09.931Z,12.47
2017-11-24T04:53:37.537Z,11.30
2017-11-24T04:56:05.373Z,7.73
2017-11-24T04:58:33.037Z,6.20
2017-11-24T05:01:00.748Z,9.87
2017-11-24T05:03:28.405Z,4.80
2017-11-24T05:05:56.040Z,9.00
2017-11-24T05:08:23.730Z,9.47
2017-11-24T05:10:51.473Z,6.73
2017-11-24T05:13:19.145Z,6.33
2017-11-24T05:15:47.797Z,13.47
2017-11-24T05:18:15.454Z,6.97
2017-11-24T05:20:43.189Z,12.83
2017-11-24T05:23:10.865Z,4.33
2017-11-24T05:25:38.607Z,10.97
2017-11-24T05:28:06.309Z,4.87
2017-11-24T05:30:33.953Z,9.00
2017-11-24T05:33:01.654Z,4.70
2017-11-24T05:35:30.240Z,7.37
2017-11-24T05:37:57.954Z,4.90
2017-11-24T05:40:25.622Z,6.80
2017-11-24T05:42:53.266Z,7.50
2017-11-24T05:45:20.878Z,10.83
2017-11-24T05:47:48.538Z,9.50
2017-11-24T05:50:16.165Z,3.80
2017-11-24T05:52:43.852Z,4.70
2017-11-24T05:55:11.543Z,6.60
2017-11-24T05:57:39.226Z,4.27
2017-11-24T06:00:06.810Z,6.83
2017-11-24T06:02:34.432Z,7.40
2017-11-24T06:05:02.092Z,13.33
2017-11-24T06:07:29.767Z,6.37
2017-11-24T06:09:57.422Z,8.10
2017-11-24T06:12:25.163Z,7.77
2017-11-24T06:14:52.856Z,10.50
2017-11-24T06:17:20.530Z,6.93
2017-11-24T06:19:48.247Z,6.53
2017-11-24T06:22:15.953Z,6.97
2017-11-24T06:24:43.728Z,8.93
2017-11-24T06:27:11.392Z,7.50
2017-11-24T06:29:39.020Z,8.40
2017-11-24T06:32:06.706Z,7.83
2017-11-24T06:34:35.621Z,6.17
2017-11-24T06:37:03.835Z,8.17
2017-11-24T06:39:31.964Z,6.17
2017-11-24T06:41:59.807Z,6.60
2017-11-24T06:44:27.491Z,7.27
2017-11-24T06:46:55.316Z,7.43
2017-11-24T06:49:24.120Z,10.13
2017-11-24T06:51:52.155Z,11.63
2017-11-24T06:54:20.264Z,13.77
2017-11-24T06:56:47.971Z,8.40
2017-11-24T06:59:15.663Z,8.93
2017-11-24T07:01:43.528Z,6.57
2017-11-24T07:04:11.224Z,9.90
2017-11-24T07:06:40.157Z,15.70
2017-11-24T07:09:07.891Z,8.97
2017-11-24T07:11:35.581Z,9.20
2017-11-24T07:14:03.454Z,6.70
2017-11-24T07:16:31.854Z,7.10
2017-11-24T07:18:59.639Z,13.20
2017-11-24T07:21:27.757Z,8.07
2017-11-24T07:23:55.471Z,10.50
2017-11-24T07:26:23.380Z,9.27
2017-11-24T07:28:51.061Z,9.33
2017-11-24T07:31:19.145Z,9.17
2017-11-24T07:33:46.878Z,17.17
2017-11-24T07:36:16.020Z,9.17
2017-11-24T07:38:43.854Z,8.50
2017-11-24T07:41:11.680Z,16.87
2017-11-24T07:43:39.363Z,11.77
2017-11-24T07:46:07.072Z,10.47
2017-11-24T07:48:34.773Z,11.03
2017-11-24T07:51:03.175Z,11.40
2017-11-24T07:53:31.287Z,10.10
2017-11-24T07:55:59.058Z,98.67
2017-11-24T07:58:27.101Z,132.60
2017-11-24T08:00:55.352Z,12.43
2017-11-24T08:03:23.151Z,14.67
2017-11-24T08:05:50.912Z,17.03
2017-11-24T08:08:19.014Z,13.00
2017-11-24T08:10:47.119Z,10.53
2017-11-24T08:13:15.353Z,22.23
2017-11-24T08:15:43.138Z,38.60
2017-11-24T08:18:10.918Z,8.63
2017-11-24T08:20:38.673Z,9.80
2017-11-24T08:23:08.157Z,8.83
2017-11-24T08:25:35.932Z,13.80
2017-11-24T08:28:03.638Z,10.30
2017-11-24T08:30:31.401Z,8.57
2017-11-24T08:32:59.531Z,14.80
2017-11-24T08:35:28.701Z,14.57
2017-11-24T08:37:56.821Z,21.60
2017-11-24T08:40:24.525Z,14.43
2017-11-24T08:42:52.233Z,15.63
2017-11-24T08:45:21.066Z,13.00
2017-11-24T08:47:54.308Z,17.90
2017-11-24T08:50:22.070Z,21.50
2017-11-24T08:52:50.196Z,23.43
2017-11-24T08:55:18.484Z,11.23
2017-11-24T08:57:46.491Z,21.50
2017-11-24T09:00:14.153Z,25.23
2017-11-24T09:02:41.949Z,18.63
2017-11-24T09:05:10.796Z,18.40
2017-11-24T09:07:38.930Z,20.20
2017-11-24T09:10:06.711Z,12.40
2017-11-24T09:12:34.461Z,15.23
2017-11-24T09:15:02.710Z,14.60
2017-11-24T09:17:32.684Z,10.70
2017-11-24T09:20:00.413Z,21.57
2017-11-24T09:22:29.147Z,11.47
2017-11-24T09:24:58.173Z,13.37
2017-11-24T09:27:26.812Z,12.53
2017-11-24T09:29:54.931Z,20.13
2017-11-24T09:32:22.652Z,18.30
2017-11-24T09:34:51.611Z,14.03
2017-11-24T09:37:19.349Z,16.53
2017-11-24T09:39:47.829Z,21.03
2017-11-24T09:42:15.849Z,7.70
2017-11-24T09:44:45.730Z,16.57
2017-11-24T09:47:13.520Z,6.90
2017-11-24T09:49:41.642Z,8.40
2017-11-24T09:52:09.424Z,10.50
2017-11-24T09:54:37.535Z,10.43
2017-11-24T09:57:06.133Z,8.33
2017-11-24T09:59:34.772Z,13.13
2017-11-24T10:02:02.486Z,13.53
2017-11-24T10:04:30.994Z,15.70
2017-11-24T10:06:58.813Z,18.00
2017-11-24T10:09:26.522Z,13.53
2017-11-24T10:11:54.276Z,12.90
2017-11-24T10:14:22.106Z,19.83
2017-11-24T10:16:49.896Z,16.50
2017-11-24T10:19:19.012Z,17.20
2017-11-24T10:21:52.243Z,12.50
2017-11-24T10:24:20.420Z,10.80
2017-11-24T10:26:48.124Z,7.80
2017-11-24T10:29:16.186Z,12.97
2017-11-24T10:31:43.886Z,10.87
2017-11-24T10:34:12.322Z,17.20
2017-11-24T10:36:39.940Z,9.87
2017-11-24T10:39:09.934Z,12.50
2017-11-24T10:41:37.999Z,7.67
2017-11-24T10:44:05.821Z,11.83
2017-11-24T10:46:34.792Z,12.87
2017-11-24T10:49:02.574Z,10.97
2017-11-24T10:51:30.295Z,6.33
2017-11-24T10:53:58.356Z,4.60
2017-11-24T10:56:26.376Z,6.80
2017-11-24T10:58:55.327Z,5.60
2017-11-24T11:01:23.337Z,8.00
2017-11-24T11:03:52.057Z,6.83
2017-11-24T11:06:19.799Z,8.77
2017-11-24T11:08:47.737Z,8.63
2017-11-24T11:11:17.476Z,7.93
2017-11-24T11:13:45.226Z,8.50
2017-11-24T11:16:13.192Z,9.53
2017-11-24T11:18:41.009Z,8.40
2017-11-24T11:21:09.188Z,7.30
2017-11-24T11:23:37.381Z,7.03
2017-11-24T11:26:05.255Z,7.33
2017-11-24T11:28:34.197Z,6.73
2017-11-24T11:31:01.936Z,8.93
2017-11-24T11:33:29.696Z,10.30
2017-11-24T11:35:58.322Z,4.83
2017-11-24T11:38:26.810Z,6.73
2017-11-24T11:40:55.310Z,9.90
2017-11-24T11:43:23.143Z,7.10
2017-11-24T11:45:51.034Z,5.43
2017-11-24T11:48:18.737Z,7.80
2017-11-24T11:50:47.279Z,8.60
2017-11-24T11:53:15.441Z,6.40
2017-11-24T11:55:43.140Z,8.00
2017-11-24T11:58:11.604Z,4.50
2017-11-24T12:00:39.664Z,5.70
2017-11-24T12:03:08.600Z,5.40
2017-11-24T12:05:37.336Z,6.23
2017-11-24T12:08:06.353Z,7.47
2017-11-24T12:10:34.033Z,7.33
2017-11-24T12:13:02.294Z,10.43
2017-11-24T12:15:29.969Z,7.40
2017-11-24T12:17:59.592Z,10.40
2017-11-24T12:20:27.664Z,4.73
2017-11-24T12:22:55.442Z,4.80
2017-11-24T12:25:23.682Z,5.97
2017-11-24T12:27:51.691Z,7.00
2017-11-24T12:30:19.431Z,4.80
2017-11-24T12:32:47.284Z,7.40
2017-11-24T12:35:16.009Z,8.30
2017-11-24T12:37:43.825Z,5.37
2017-11-24T12:40:12.028Z,12.70
2017-11-24T12:42:40.521Z,8.40
2017-11-24T12:45:09.521Z,3.27
2017-11-24T12:47:37.362Z,6.27
2017-11-24T12:50:05.406Z,7.30
2017-11-24T12:52:33.189Z,6.23
2017-11-24T12:55:01.210Z,4.77
2017-11-24T12:57:29.000Z,5.50
2017-11-24T12:59:57.163Z,4.57
2017-11-24T13:02:26.172Z,4.90
2017-11-24T13:04:54.272Z,3.47
2017-11-24T13:07:22.456Z,6.57
2017-11-24T13:09:50.425Z,8.33
2017-11-24T13:12:18.663Z,5.03
2017-11-24T13:14:46.455Z,8.50
2017-11-24T13:17:14.521Z,6.60
2017-11-24T13:19:42.454Z,6.40
2017-11-24T13:22:10.886Z,11.40
2017-11-24T13:24:38.643Z,9.63
2017-11-24T13:27:06.405Z,7.70
2017-11-24T13:29:34.211Z,6.97
2017-11-24T13:32:02.181Z,7.93
2017-11-24T13:34:29.923Z,6.90
2017-11-24T13:36:57.667Z,5.40
2017-11-24T13:39:25.723Z,8.10
2017-11-24T13:41:53.456Z,8.60
2017-11-24T13:44:22.510Z,5.90
2017-11-24T13:46:50.550Z,5.83
2017-11-24T13:49:18.776Z,6.50
2017-11-24T13:51:46.541Z,8.57
2017-11-24T13:54:14.658Z,6.13
2017-11-24T13:56:42.485Z,9.53
2017-11-24T13:59:10.372Z,8.63
2017-11-24T14:01:42.150Z,13.90
2017-11-24T14:04:10.317Z,6.10
2017-11-24T14:06:38.372Z,9.37
2017-11-24T14:09:06.152Z,8.27
2017-11-24T14:11:33.914Z,7.10
2017-11-24T14:14:02.791Z,8.00
2017-11-24T14:16:30.565Z,9.37
2017-11-24T14:18:58.335Z,6.40
2017-11-24T14:21:26.067Z,5.83
2017-11-24T14:23:53.833Z,5.53
2017-11-24T14:26:21.952Z,6.93
2017-11-24T14:28:49.655Z,5.87
2017-11-24T14:31:17.436Z,9.80
2017-11-24T14:33:45.151Z,8.83
2017-11-24T14:36:13.098Z,8.77
2017-11-24T14:38:41.036Z,6.13
2017-11-24T14:41:08.807Z,8.50
2017-11-24T14:43:36.803Z,10.90
2017-11-24T14:46:05.208Z,7.83
2017-11-24T14:48:33.168Z,6.20
2017-11-24T14:51:01.488Z,10.57
2017-11-24T14:53:29.336Z,15.80
2017-11-24T14:55:57.561Z,9.50
2017-11-24T14:58:25.363Z,9.63
2017-11-24T15:00:53.435Z,8.50
2017-11-24T15:03:21.179Z,6.93
2017-11-24T15:05:49.164Z,7.90
2017-11-24T15:08:17.294Z,7.13
2017-11-24T15:10:45.084Z,6.20
2017-11-24T15:13:13.960Z,10.23
2017-11-24T15:15:41.977Z,10.27
2017-11-24T15:18:11.369Z,8.20
2017-11-24T15:20:39.430Z,7.70
2017-11-24T15:23:07.190Z,9.60
2017-11-24T15:25:34.875Z,6.87
2017-11-24T15:28:02.672Z,7.33
2017-11-24T15:30:30.745Z,8.73
2017-11-24T15:32:58.580Z,8.80
2017-11-24T15:35:26.254Z,10.03
2017-11-24T15:37:54.073Z,8.23
2017-11-24T15:40:21.764Z,9.87
2017-11-24T15:42:49.504Z,10.23
2017-11-24T15:45:17.413Z,8.53
2017-11-24T15:47:45.959Z,10.07
2017-11-24T15:50:13.670Z,11.77
2017-11-24T15:52:41.680Z,9.37
2017-11-24T15:55:09.504Z,13.90
2017-11-24T15:57:37.498Z,13.40
2017-11-24T16:00:06.632Z,8.17
2017-11-24T16:02:34.383Z,19.03
2017-11-24T16:05:02.196Z,20.33
2017-11-24T16:07:29.946Z,35.63
2017-11-24T16:09:57.686Z,21.83
2017-11-24T16:12:25.419Z,12.50
2017-11-24T16:14:53.214Z,13.43
2017-11-24T16:17:20.940Z,15.23
2017-11-24T16:19:48.695Z,15.70
2017-11-24T16:22:18.640Z,29.07
2017-11-24T16:24:46.688Z,17.23
2017-11-24T16:27:14.921Z,13.90
2017-11-24T16:29:43.504Z,12.47
2017-11-24T16:32:11.457Z,15.40
2017-11-24T16:34:39.633Z,12.70
2017-11-24T16:37:07.426Z,13.30
2017-11-24T16:39:35.575Z,14.80
2017-11-24T16:42:03.260Z,11.90
2017-11-24T16:44:31.175Z,15.63
2017-11-24T16:46:59.066Z,17.30
2017-11-24T16:49:26.808Z,14.63
2017-11-24T16:51:54.528Z,12.70
2017-11-24T16:54:22.261Z,17.97
2017-11-24T16:56:50.100Z,17.67
2017-11-24T16:59:18.130Z,15.80
2017-11-24T17:01:46.198Z,12.53
2017-11-24T17:04:13.878Z,22.57
2017-11-24T17:06:41.929Z,13.70
2017-11-24T17:09:10.021Z,16.20
2017-11-24T17:11:38.114Z,22.70
2017-11-24T17:14:06.807Z,15.53
2017-11-24T17:16:34.783Z,17.03
2017-11-24T17:19:02.444Z,22.23
2017-11-24T17:21:30.212Z,21.00
2017-11-24T17:23:58.108Z,18.23
2017-11-24T17:26:27.054Z,20.23
2017-11-24T17:28:55.037Z,19.30
2017-11-24T17:31:23.151Z,18.30
2017-11-24T17:33:50.832Z,19.57
2017-11-24T17:36:19.586Z,23.17
2017-11-24T17:38:47.293Z,21.90
2017-11-24T17:41:15.000Z,23.80
2017-11-24T17:43:43.620Z,19.47
2017-11-24T17:46:11.356Z,23.70
2017-11-24T17:48:39.872Z,12.07
2017-11-24T17:51:07.639Z,17.60
2017-11-24T17:53:35.368Z,16.17
2017-11-24T17:56:04.258Z,17.50
2017-11-24T17:58:32.349Z,16.90
2017-11-24T18:01:00.120Z,18.17
2017-11-24T18:03:28.702Z,15.37
2017-11-24T18:05:56.460Z,21.60
2017-11-24T18:08:24.205Z,19.40
2017-11-24T18:10:51.911Z,20.93
2017-11-24T18:13:19.864Z,18.13
2017-11-24T18:15:47.588Z,17.73
2017-11-24T18:18:15.348Z,23.63
2017-11-24T18:20:43.022Z,19.73
2017-11-24T18:23:10.744Z,23.43
2017-11-24T18:25:38.429Z,17.33
2017-11-24T18:28:06.166Z,107.67
2017-11-24T18:30:33.887Z,19.73
2017-11-24T18:33:01.596Z,95.07
2017-11-24T18:35:29.241Z,70.47
2017-11-24T18:37:56.934Z,153.47
2017-11-24T18:40:24.650Z,44.97
2017-11-24T18:42:52.359Z,226.50
2017-11-24T18:45:20.073Z,180.30
2017-11-24T18:47:47.709Z,257.47
2017-11-24T18:50:15.416Z,136.77
2017-11-24T18:52:43.111Z,203.80
2017-11-24T18:55:10.856Z,96.83
2017-11-24T18:57:38.541Z,118.77
2017-11-24T19:00:06.250Z,130.50
2017-11-24T19:02:33.911Z,55.77
2017-11-24T19:05:01.633Z,61.53
2017-11-24T19:07:29.298Z,47.60
2017-11-24T19:09:57.003Z,34.77
2017-11-24T19:12:24.633Z,71.80
2017-11-24T19:14:52.249Z,90.47
2017-11-24T19:17:19.912Z,116.93
2017-11-24T19:19:47.613Z,56.43
2017-11-24T19:22:15.295Z,59.17
2017-11-24T19:24:42.977Z,65.10
2017-11-24T19:27:10.767Z,102.13
2017-11-24T19:29:38.528Z,77.43
2017-11-24T19:32:06.199Z,114.70
2017-11-24T19:34:33.869Z,68.80
2017-11-24T19:37:01.583Z,142.43
2017-11-24T19:39:29.253Z,98.80
2017-11-24T19:41:56.940Z,83.43
2017-11-24T19:44:24.601Z,30.27
2017-11-24T19:46:52.308Z,29.83
2017-11-24T19:49:19.995Z,21.80
2017-11-24T19:51:47.689Z,35.80
2017-11-24T19:54:15.356Z,30.77
2017-11-24T19:56:43.083Z,36.67
2017-11-24T19:59:10.737Z,22.40
2017-11-24T20:01:38.465Z,30.90
2017-11-24T20:04:06.125Z,49.67
2017-11-24T20:06:33.854Z,20.57
2017-11-24T20:09:01.548Z,24.70
2017-11-24T20:11:29.301Z,45.53
2017-11-24T20:13:57.055Z,54.43
2017-11-24T20:16:24.795Z,85.37
2017-11-24T20:18:52.461Z,74.57
2017-11-24T20:21:20.187Z,43.97
2017-11-24T20:23:47.872Z,25.03
2017-11-24T20:26:15.607Z,33.90
2017-11-24T20:28:43.275Z,34.53
2017-11-24T20:31:10.928Z,28.53
2017-11-24T20:33:38.685Z,32.20
2017-11-24T20:36:06.425Z,28.17
2017-11-24T20:38:34.144Z,32.90
2017-11-24T20:41:05.550Z,33.00
2017-11-24T20:43:33.597Z,38.60
2017-11-24T20:46:01.270Z,52.70
2017-11-24T20:48:28.992Z,60.30
2017-11-24T20:50:56.751Z,72.43
2017-11-24T20:53:24.456Z,38.10
2017-11-24T20:55:52.166Z,43.90
2017-11-24T20:58:19.875Z,162.03
2017-11-24T21:00:47.581Z,185.90
2017-11-24T21:03:15.302Z,70.13
2017-11-24T21:05:42.966Z,133.57
2017-11-24T21:08:10.681Z,157.87
2017-11-24T21:10:38.360Z,570.87
2017-11-24T21:13:06.112Z,115.73
2017-11-24T21:15:33.824Z,348.90
2017-11-24T21:18:01.514Z,280.17
2017-11-24T21:20:29.212Z,164.17
2017-11-24T21:22:56.918Z,122.17
2017-11-24T21:25:24.569Z,192.70
2017-11-24T21:27:52.252Z,216.20
2017-11-24T21:30:19.964Z,371.73
2017-11-24T21:32:47.646Z,244.43
2017-11-24T21:35:15.380Z,234.87
2017-11-24T21:37:43.078Z,362.13
2017-11-24T21:40:10.779Z,126.37
2017-11-24T21:42:38.453Z,128.17
2017-11-24T21:45:06.167Z,238.87
2017-11-24T21:47:33.838Z,142.70
2017-11-24T21:50:01.552Z,175.10
2017-11-24T21:52:29.188Z,187.13
2017-11-24T21:54:56.957Z,151.93
2017-11-24T21:57:24.641Z,145.00
2017-11-24T21:59:52.333Z,203.13
2017-11-24T22:02:20.025Z,395.77
2017-11-24T22:04:47.738Z,343.93
2017-11-24T22:07:15.426Z,305.87
2017-11-24T22:09:43.156Z,322.80
2017-11-24T22:12:10.830Z,500.33
2017-11-24T22:14:38.501Z,481.33
2017-11-24T22:17:06.213Z,447.27
2017-11-24T22:19:33.867Z,382.47
2017-11-24T22:22:01.582Z,299.73
2017-11-24T22:24:29.263Z,181.50
2017-11-24T22:26:56.970Z,293.00
2017-11-24T22:29:24.658Z,418.07
2017-11-24T22:31:52.397Z,325.93
2017-11-24T22:34:20.108Z,561.30
2017-11-24T22:36:47.850Z,302.37
2017-11-24T22:39:15.547Z,439.57
2017-11-24T22:41:43.255Z,417.97
2017-11-24T22:44:11.369Z,590.17
2017-11-24T22:46:39.076Z,375.77
2017-11-24T22:49:06.749Z,533.13
2017-11-24T22:51:34.469Z,522.43
2017-11-24T22:54:02.150Z,579.47
2017-11-24T22:56:30.882Z,270.13
2017-11-24T22:58:58.543Z,545.73
2017-11-24T23:01:26.189Z,183.37
2017-11-24T23:03:53.900Z,172.63
2017-11-24T23:06:21.608Z,245.50
2017-11-24T23:08:49.291Z,192.33
2017-11-24T23:11:16.963Z,124.97
2017-11-24T23:13:44.675Z,241.87
2017-11-24T23:16:12.302Z,203.47
2017-11-24T23:18:40.031Z,213.80
2017-11-24T23:21:07.697Z,228.53
2017-11-24T23:23:35.414Z,169.90
2017-11-24T23:26:03.079Z,145.80
2017-11-24T23:28:30.783Z,187.20
2017-11-24T23:30:58.481Z,219.60
2017-11-24T23:33:26.185Z,114.67
2017-11-24T23:35:53.859Z,251.60
2017-11-24T23:38:21.569Z,93.07
2017-11-24T23:40:49.231Z,137.20
2017-11-24T23:43:16.917Z,72.30
2017-11-24T23:45:44.585Z,77.77
2017-11-24T23:48:12.269Z,94.57
2017-11-24T23:50:39.932Z,71.03
2017-11-24T23:53:07.629Z,80.10
2017-11-24T23:55:35.316Z,85.83
2017-11-24T23:58:02.974Z,70.47
